PWSweather.com
Personal Weather Stations
Station Observations
MIKESPOST
YorkGB

YorkGB

Lat: 53.9577018, Lon: -1.0822855

Elevation: 0

Station Type: WH1081

High Low Average
Temperature 46.4°F8.0°C 35.6°F2.0°C 41.7°F5.4°C
Dew Point 45.0°F7.2°C 34.2°F1.2°C 40.3°F4.6°C
Winds 8.0 mph 12.9 kmh 1.6 mph 2.6 kmh 5.0 mph S8.0 kmh S
Wind Gusts 11.4 mph18.3 kmh 3.4 mph5.5 kmh 7.0 mph11.3 kmh
Humidity 97% 88% 95%
Pressure 29.41 in995.9 mb 29.19 in988.5 mb -
Precipitation 0.67 in17.0 mm - -
Hour Temp Dew Point Humidity Winds Wind Gusts Pressure Precip Precip Rate Daily Precip Total
12:04 AM 39.2°F4.0°C 36.2°F2.3°C 89% 3.5 mph SSE5.6 kmh SSE 6.7 mph10.8 kmh 29.41 in995.9 mb 0.00 in0.0 mm 0.00 in/hr0.0 mm/hr 0.00 in0.0 mm
12:14 AM 39.0°F3.9°C 35.8°F2.1°C 88% 3.2 mph SE5.1 kmh SE 3.4 mph5.5 kmh 29.41 in995.9 mb 0.00 in0.0 mm 0.00 in/hr0.0 mm/hr 0.00 in0.0 mm
12:24 AM 38.7°F3.7°C 35.7°F2.1°C 89% 3.1 mph SE5.0 kmh SE 3.4 mph5.5 kmh 29.41 in995.9 mb 0.00 in0.0 mm 0.00 in/hr0.0 mm/hr 0.00 in0.0 mm
12:34 AM 38.3°F3.5°C 35.4°F1.9°C 89% 1.6 mph S2.6 kmh S 3.4 mph5.5 kmh 29.40 in995.6 mb 0.00 in0.0 mm 0.00 in/hr0.0 mm/hr 0.00 in0.0 mm
12:44 AM 38.1°F3.4°C 35.2°F1.8°C 89% 2.0 mph SSE3.2 kmh SSE 3.4 mph5.5 kmh 29.40 in995.6 mb 0.00 in0.0 mm 0.00 in/hr0.0 mm/hr 0.00 in0.0 mm
12:54 AM 37.9°F3.3°C 35.3°F1.8°C 90% 2.8 mph SSE4.5 kmh SSE 4.7 mph7.6 kmh 29.40 in995.6 mb 0.00 in0.0 mm 0.00 in/hr0.0 mm/hr 0.00 in0.0 mm
01:04 AM 37.8°F3.2°C 35.4°F1.9°C 91% 3.1 mph SSE5.0 kmh SSE 4.7 mph7.6 kmh 29.39 in995.3 mb 0.00 in0.0 mm 0.00 in/hr0.0 mm/hr 0.00 in0.0 mm
01:14 AM 37.8°F3.2°C 35.4°F1.9°C 91% 3.4 mph SE5.5 kmh SE 5.7 mph9.2 kmh 29.39 in995.3 mb 0.00 in0.0 mm 0.00 in/hr0.0 mm/hr 0.00 in0.0 mm
01:24 AM 37.4°F3.0°C 35.0°F1.7°C 91% 3.1 mph SSE5.0 kmh SSE 4.7 mph7.6 kmh 29.38 in994.9 mb 0.00 in0.0 mm 0.00 in/hr0.0 mm/hr 0.00 in0.0 mm
01:34 AM 37.2°F2.9°C 34.8°F1.6°C 91% 3.1 mph SSE5.0 kmh SSE 5.7 mph9.2 kmh 29.38 in994.9 mb 0.00 in0.0 mm 0.00 in/hr0.0 mm/hr 0.00 in0.0 mm
01:44 AM 37.0°F2.8°C 34.9°F1.6°C 92% 3.6 mph SE5.8 kmh SE 5.7 mph9.2 kmh 29.37 in994.6 mb 0.00 in0.0 mm 0.00 in/hr0.0 mm/hr 0.00 in0.0 mm
01:54 AM 36.9°F2.7°C 34.8°F1.6°C 92% 3.1 mph SSE5.0 kmh SSE 5.7 mph9.2 kmh 29.37 in994.6 mb 0.00 in0.0 mm 0.00 in/hr0.0 mm/hr 0.00 in0.0 mm
02:04 AM 36.7°F2.6°C 34.6°F1.4°C 92% 3.3 mph SE5.3 kmh SE 4.7 mph7.6 kmh 29.37 in994.6 mb 0.00 in0.0 mm 0.00 in/hr0.0 mm/hr 0.00 in0.0 mm
02:14 AM 36.5°F2.5°C 34.4°F1.3°C 92% 2.7 mph S4.3 kmh S 3.4 mph5.5 kmh 29.36 in994.2 mb 0.00 in0.0 mm 0.00 in/hr0.0 mm/hr 0.00 in0.0 mm
02:24 AM 36.3°F2.4°C 34.2°F1.2°C 92% 2.9 mph S4.7 kmh S 4.7 mph7.6 kmh 29.36 in994.2 mb 0.00 in0.0 mm 0.00 in/hr0.0 mm/hr 0.00 in0.0 mm
02:34 AM 36.1°F2.3°C 34.3°F1.3°C 93% 2.6 mph SSE4.2 kmh SSE 5.7 mph9.2 kmh 29.36 in994.2 mb 0.00 in0.0 mm 0.00 in/hr0.0 mm/hr 0.00 in0.0 mm
02:44 AM 36.1°F2.3°C 34.3°F1.3°C 93% 2.2 mph SE3.5 kmh SE 3.4 mph5.5 kmh 29.36 in994.2 mb 0.00 in0.0 mm 0.00 in/hr0.0 mm/hr 0.00 in0.0 mm
02:54 AM 36.1°F2.3°C 34.3°F1.3°C 93% 2.1 mph SSE3.4 kmh SSE 3.4 mph5.5 kmh 29.36 in994.2 mb 0.00 in0.0 mm 0.00 in/hr0.0 mm/hr 0.00 in0.0 mm
03:04 AM 36.3°F2.4°C 34.5°F1.4°C 93% 3.0 mph SE4.8 kmh SE 4.7 mph7.6 kmh 29.36 in994.2 mb 0.00 in0.0 mm 0.00 in/hr0.0 mm/hr 0.00 in0.0 mm
03:14 AM 36.3°F2.4°C 34.8°F1.6°C 94% 2.7 mph SSE4.3 kmh SSE 4.7 mph7.6 kmh 29.34 in993.6 mb 0.00 in0.0 mm 0.00 in/hr0.0 mm/hr 0.00 in0.0 mm
03:24 AM 36.3°F2.4°C 34.8°F1.6°C 94% 3.5 mph SSE5.6 kmh SSE 4.7 mph7.6 kmh 29.35 in993.9 mb 0.00 in0.0 mm 0.00 in/hr0.0 mm/hr 0.00 in0.0 mm
03:34 AM 36.1°F2.3°C 34.6°F1.4°C 94% 3.6 mph SSE5.8 kmh SSE 4.7 mph7.6 kmh 29.34 in993.6 mb 0.00 in0.0 mm 0.00 in/hr0.0 mm/hr 0.00 in0.0 mm
03:44 AM 36.1°F2.3°C 34.6°F1.4°C 94% 4.6 mph SE7.4 kmh SE 5.7 mph9.2 kmh 29.34 in993.6 mb 0.00 in0.0 mm 0.00 in/hr0.0 mm/hr 0.00 in0.0 mm
03:54 AM 36.0°F2.2°C 34.4°F1.3°C 94% 4.3 mph SE6.9 kmh SE 6.7 mph10.8 kmh 29.34 in993.6 mb 0.00 in0.0 mm 0.00 in/hr0.0 mm/hr 0.00 in0.0 mm
04:04 AM 36.0°F2.2°C 34.7°F1.5°C 95% 5.5 mph SE8.9 kmh SE 8.1 mph13.0 kmh 29.34 in993.6 mb 0.00 in0.0 mm 0.00 in/hr0.0 mm/hr 0.00 in0.0 mm
04:14 AM 36.0°F2.2°C 34.7°F1.5°C 95% 4.9 mph SSE7.9 kmh SSE 5.7 mph9.2 kmh 29.33 in993.2 mb 0.00 in0.0 mm 0.00 in/hr0.0 mm/hr 0.00 in0.0 mm
04:24 AM 35.6°F2.0°C 34.3°F1.3°C 95% 2.9 mph SE4.7 kmh SE 5.7 mph9.2 kmh 29.33 in993.2 mb 0.00 in0.0 mm 0.00 in/hr0.0 mm/hr 0.00 in0.0 mm
04:34 AM 35.6°F2.0°C 34.3°F1.3°C 95% 3.6 mph SE5.8 kmh SE 5.7 mph9.2 kmh 29.32 in992.9 mb 0.00 in0.0 mm 0.00 in/hr0.0 mm/hr 0.00 in0.0 mm
04:44 AM 35.8°F2.1°C 34.5°F1.4°C 95% 4.7 mph S7.6 kmh S 5.7 mph9.2 kmh 29.32 in992.9 mb 0.00 in0.0 mm 0.00 in/hr0.0 mm/hr 0.00 in0.0 mm
04:54 AM 35.8°F2.1°C 34.5°F1.4°C 95% 4.7 mph SE7.6 kmh SE 6.7 mph10.8 kmh 29.32 in992.9 mb 0.00 in0.0 mm 0.00 in/hr0.0 mm/hr 0.00 in0.0 mm
05:04 AM 35.8°F2.1°C 34.5°F1.4°C 95% 5.3 mph SSE8.5 kmh SSE 6.7 mph10.8 kmh 29.32 in992.9 mb 0.00 in0.0 mm 0.00 in/hr0.0 mm/hr 0.00 in0.0 mm
05:14 AM 36.0°F2.2°C 34.7°F1.5°C 95% 5.1 mph SSE8.2 kmh SSE 8.1 mph13.0 kmh 29.31 in992.6 mb 0.00 in0.0 mm 0.00 in/hr0.0 mm/hr 0.00 in0.0 mm
05:24 AM 36.0°F2.2°C 34.9°F1.6°C 96% 4.5 mph SSE7.2 kmh SSE 6.7 mph10.8 kmh 29.31 in992.6 mb 0.00 in0.0 mm 0.00 in/hr0.0 mm/hr 0.00 in0.0 mm
05:34 AM 36.1°F2.3°C 35.1°F1.7°C 96% 3.0 mph S4.8 kmh S 4.7 mph7.6 kmh 29.31 in992.6 mb 0.00 in0.0 mm 0.00 in/hr0.0 mm/hr 0.00 in0.0 mm
05:44 AM 36.1°F2.3°C 35.1°F1.7°C 96% 3.0 mph S4.8 kmh S 4.7 mph7.6 kmh 29.31 in992.6 mb 0.00 in0.0 mm 0.00 in/hr0.0 mm/hr 0.00 in0.0 mm
05:54 AM 36.3°F2.4°C 35.3°F1.8°C 96% 3.8 mph S6.1 kmh S 5.7 mph9.2 kmh 29.31 in992.6 mb 0.00 in0.0 mm 0.00 in/hr0.0 mm/hr 0.00 in0.0 mm
07:45 AM 41.2°F5.1°C 39.9°F4.4°C 95% 6.2 mph S10.0 kmh S 8.1 mph13.0 kmh 29.29 in991.9 mb 0.00 in0.0 mm 0.00 in/hr0.0 mm/hr 0.00 in0.0 mm
07:55 AM 41.5°F5.3°C 40.2°F4.6°C 95% 6.4 mph SW10.3 kmh SW 9.1 mph14.6 kmh 29.29 in991.9 mb 0.00 in0.0 mm 0.00 in/hr0.0 mm/hr 0.00 in0.0 mm
03:51 PM 45.0°F7.2°C 43.6°F6.4°C 95% 5.6 mph WSW9.0 kmh WSW 11.4 mph18.3 kmh 29.21 in989.2 mb 0.54 in13.7 mm 8.10 in/hr205.7 mm/hr 0.54 in13.7 mm
04:01 PM 45.5°F7.5°C 44.2°F6.8°C 95% 4.7 mph WSW7.6 kmh WSW 8.1 mph13.0 kmh 29.21 in989.2 mb 0.54 in13.7 mm 0.00 in/hr0.0 mm/hr 0.54 in13.7 mm
04:11 PM 45.9°F7.7°C 44.5°F6.9°C 95% 5.1 mph WSW8.2 kmh WSW 8.1 mph13.0 kmh 29.20 in988.8 mb 0.54 in13.7 mm 0.00 in/hr0.0 mm/hr 0.54 in13.7 mm
04:21 PM 45.9°F7.7°C 44.5°F6.9°C 95% 5.4 mph SW8.7 kmh SW 6.7 mph10.8 kmh 29.20 in988.8 mb 0.56 in14.2 mm 0.12 in/hr3.0 mm/hr 0.56 in14.2 mm
04:31 PM 46.0°F7.8°C 44.7°F7.1°C 95% 4.4 mph WSW7.1 kmh WSW 6.7 mph10.8 kmh 29.20 in988.8 mb 0.56 in14.2 mm 0.00 in/hr0.0 mm/hr 0.56 in14.2 mm
04:41 PM 46.4°F8.0°C 45.0°F7.2°C 95% 4.9 mph SSW7.9 kmh SSW 6.7 mph10.8 kmh 29.20 in988.8 mb 0.56 in14.2 mm 0.00 in/hr0.0 mm/hr 0.56 in14.2 mm
04:51 PM 46.4°F8.0°C 44.8°F7.1°C 94% 5.5 mph SW8.9 kmh SW 10.4 mph16.7 kmh 29.20 in988.8 mb 0.02 in0.5 mm 0.00 in/hr0.0 mm/hr 0.57 in14.5 mm
05:01 PM 46.0°F7.8°C 44.7°F7.1°C 95% 5.5 mph WSW8.9 kmh WSW 9.1 mph14.6 kmh 29.20 in988.8 mb 0.06 in1.5 mm 0.05 in/hr1.3 mm/hr 0.60 in15.2 mm
05:11 PM 45.7°F7.6°C 44.3°F6.8°C 95% 5.0 mph SW8.0 kmh SW 9.1 mph14.6 kmh 29.19 in988.5 mb 0.07 in1.8 mm 0.06 in/hr1.5 mm/hr 0.61 in15.5 mm
05:21 PM 45.5°F7.5°C 44.2°F6.8°C 95% 4.0 mph WNW6.4 kmh WNW 6.7 mph10.8 kmh 29.19 in988.5 mb 0.06 in1.5 mm 0.00 in/hr0.0 mm/hr 0.61 in15.5 mm
05:31 PM 45.3°F7.4°C 44.2°F6.8°C 96% 4.1 mph WSW6.6 kmh WSW 8.1 mph13.0 kmh 29.20 in988.8 mb 0.06 in1.5 mm 0.00 in/hr0.0 mm/hr 0.61 in15.5 mm
05:41 PM 45.5°F7.5°C 44.4°F6.9°C 96% 4.3 mph WNW6.9 kmh WNW 6.7 mph10.8 kmh 29.20 in988.8 mb 0.06 in1.5 mm 0.00 in/hr0.0 mm/hr 0.61 in15.5 mm
05:51 PM 45.5°F7.5°C 44.4°F6.9°C 96% 3.5 mph SW5.6 kmh SW 4.7 mph7.6 kmh 29.20 in988.8 mb 0.05 in1.3 mm 0.00 in/hr0.0 mm/hr 0.61 in15.5 mm
06:01 PM 45.9°F7.7°C 44.8°F7.1°C 96% 5.3 mph SW8.5 kmh SW 9.1 mph14.6 kmh 29.19 in988.5 mb 0.01 in0.3 mm 0.00 in/hr0.0 mm/hr 0.61 in15.5 mm
06:11 PM 46.0°F7.8°C 45.0°F7.2°C 96% 5.9 mph SW9.5 kmh SW 9.1 mph14.6 kmh 29.19 in988.5 mb 0.00 in0.0 mm 0.00 in/hr0.0 mm/hr 0.61 in15.5 mm
06:21 PM 46.0°F7.8°C 45.0°F7.2°C 96% 4.6 mph WSW7.4 kmh WSW 5.7 mph9.2 kmh 29.20 in988.8 mb 0.00 in0.0 mm 0.00 in/hr0.0 mm/hr 0.61 in15.5 mm
06:31 PM 46.0°F7.8°C 45.0°F7.2°C 96% 4.4 mph SW7.1 kmh SW 6.7 mph10.8 kmh 29.20 in988.8 mb 0.00 in0.0 mm 0.00 in/hr0.0 mm/hr 0.61 in15.5 mm
06:41 PM 46.0°F7.8°C 45.0°F7.2°C 96% 4.6 mph WSW7.4 kmh WSW 8.1 mph13.0 kmh 29.20 in988.8 mb 0.00 in0.0 mm 0.00 in/hr0.0 mm/hr 0.61 in15.5 mm
06:51 PM 45.9°F7.7°C 44.8°F7.1°C 96% 5.1 mph SW8.2 kmh SW 6.7 mph10.8 kmh 29.20 in988.8 mb 0.00 in0.0 mm 0.00 in/hr0.0 mm/hr 0.61 in15.5 mm
07:01 PM 45.9°F7.7°C 44.8°F7.1°C 96% 5.4 mph SW8.7 kmh SW 8.1 mph13.0 kmh 29.20 in988.8 mb 0.00 in0.0 mm 0.00 in/hr0.0 mm/hr 0.61 in15.5 mm
07:11 PM 45.7°F7.6°C 44.6°F7.0°C 96% 5.9 mph S9.5 kmh S 11.4 mph18.3 kmh 29.21 in989.2 mb 0.00 in0.0 mm 0.00 in/hr0.0 mm/hr 0.61 in15.5 mm
07:21 PM 45.7°F7.6°C 44.6°F7.0°C 96% 5.3 mph WSW8.5 kmh WSW 6.7 mph10.8 kmh 29.21 in989.2 mb 0.00 in0.0 mm 0.00 in/hr0.0 mm/hr 0.61 in15.5 mm
07:31 PM 45.5°F7.5°C 44.4°F6.9°C 96% 4.8 mph SW7.7 kmh SW 6.7 mph10.8 kmh 29.21 in989.2 mb 0.00 in0.0 mm 0.00 in/hr0.0 mm/hr 0.61 in15.5 mm
07:41 PM 45.5°F7.5°C 44.4°F6.9°C 96% 6.0 mph SSW9.7 kmh SSW 8.1 mph13.0 kmh 29.21 in989.2 mb 0.00 in0.0 mm 0.00 in/hr0.0 mm/hr 0.61 in15.5 mm
07:51 PM 45.5°F7.5°C 44.4°F6.9°C 96% 7.2 mph S11.6 kmh S 9.1 mph14.6 kmh 29.21 in989.2 mb 0.00 in0.0 mm 0.00 in/hr0.0 mm/hr 0.61 in15.5 mm
08:01 PM 45.5°F7.5°C 44.4°F6.9°C 96% 6.0 mph SW9.7 kmh SW 10.4 mph16.7 kmh 29.21 in989.2 mb 0.00 in0.0 mm 0.00 in/hr0.0 mm/hr 0.61 in15.5 mm
08:11 PM 45.5°F7.5°C 44.4°F6.9°C 96% 5.4 mph SW8.7 kmh SW 8.1 mph13.0 kmh 29.21 in989.2 mb 0.00 in0.0 mm 0.00 in/hr0.0 mm/hr 0.61 in15.5 mm
08:21 PM 45.5°F7.5°C 44.4°F6.9°C 96% 6.4 mph S10.3 kmh S 11.4 mph18.3 kmh 29.21 in989.2 mb 0.00 in0.0 mm 0.00 in/hr0.0 mm/hr 0.61 in15.5 mm
08:31 PM 45.5°F7.5°C 44.4°F6.9°C 96% 6.8 mph S10.9 kmh S 10.4 mph16.7 kmh 29.21 in989.2 mb 0.00 in0.0 mm 0.00 in/hr0.0 mm/hr 0.61 in15.5 mm
08:41 PM 45.5°F7.5°C 44.4°F6.9°C 96% 7.0 mph SW11.3 kmh SW 10.4 mph16.7 kmh 29.22 in989.5 mb 0.00 in0.0 mm 0.00 in/hr0.0 mm/hr 0.61 in15.5 mm
08:51 PM 45.5°F7.5°C 44.2°F6.8°C 95% 5.5 mph SSW8.9 kmh SSW 10.4 mph16.7 kmh 29.21 in989.2 mb 0.00 in0.0 mm 0.00 in/hr0.0 mm/hr 0.61 in15.5 mm
09:01 PM 45.5°F7.5°C 44.4°F6.9°C 96% 6.6 mph S10.6 kmh S 10.4 mph16.7 kmh 29.22 in989.5 mb 0.02 in0.5 mm 0.02 in/hr0.5 mm/hr 0.64 in16.3 mm
09:11 PM 45.3°F7.4°C 44.2°F6.8°C 96% 5.0 mph SW8.0 kmh SW 9.1 mph14.6 kmh 29.22 in989.5 mb 0.04 in1.0 mm 0.12 in/hr3.0 mm/hr 0.65 in16.5 mm
09:21 PM 45.1°F7.3°C 44.1°F6.7°C 96% 5.9 mph S9.5 kmh S 8.1 mph13.0 kmh 29.23 in989.8 mb 0.04 in1.0 mm 0.00 in/hr0.0 mm/hr 0.65 in16.5 mm
09:31 PM 45.1°F7.3°C 44.3°F6.8°C 97% 8.0 mph S12.9 kmh S 11.4 mph18.3 kmh 29.23 in989.8 mb 0.05 in1.3 mm 0.06 in/hr1.5 mm/hr 0.66 in16.8 mm
09:41 PM 45.3°F7.4°C 44.5°F6.9°C 97% 5.5 mph SW8.9 kmh SW 8.1 mph13.0 kmh 29.23 in989.8 mb 0.05 in1.3 mm 0.00 in/hr0.0 mm/hr 0.66 in16.8 mm
09:51 PM 45.3°F7.4°C 44.5°F6.9°C 97% 4.9 mph S7.9 kmh S 8.1 mph13.0 kmh 29.23 in989.8 mb 0.06 in1.5 mm 0.06 in/hr1.5 mm/hr 0.67 in17.0 mm
10:01 PM 45.3°F7.4°C 44.5°F6.9°C 97% 5.1 mph S8.2 kmh S 6.7 mph10.8 kmh 29.23 in989.8 mb 0.04 in1.0 mm 0.00 in/hr0.0 mm/hr 0.67 in17.0 mm
10:11 PM 45.1°F7.3°C 44.3°F6.8°C 97% 5.3 mph SW8.5 kmh SW 8.1 mph13.0 kmh 29.24 in990.2 mb 0.02 in0.5 mm 0.00 in/hr0.0 mm/hr 0.67 in17.0 mm
10:21 PM 45.1°F7.3°C 44.1°F6.7°C 96% 6.3 mph S10.1 kmh S 9.1 mph14.6 kmh 29.24 in990.2 mb 0.02 in0.5 mm 0.00 in/hr0.0 mm/hr 0.67 in17.0 mm
10:31 PM 45.1°F7.3°C 44.1°F6.7°C 96% 6.4 mph SW10.3 kmh SW 9.1 mph14.6 kmh 29.24 in990.2 mb 0.01 in0.3 mm 0.00 in/hr0.0 mm/hr 0.67 in17.0 mm
10:41 PM 45.1°F7.3°C 44.1°F6.7°C 96% 5.7 mph SSW9.2 kmh SSW 8.1 mph13.0 kmh 29.24 in990.2 mb 0.01 in0.3 mm 0.00 in/hr0.0 mm/hr 0.67 in17.0 mm
10:51 PM 45.1°F7.3°C 44.1°F6.7°C 96% 6.1 mph SW9.8 kmh SW 9.1 mph14.6 kmh 29.24 in990.2 mb 0.00 in0.0 mm 0.00 in/hr0.0 mm/hr 0.67 in17.0 mm
11:01 PM 45.1°F7.3°C 43.8°F6.6°C 95% 7.6 mph S12.2 kmh S 11.4 mph18.3 kmh 29.24 in990.2 mb 0.00 in0.0 mm 0.00 in/hr0.0 mm/hr 0.67 in17.0 mm
11:11 PM 45.1°F7.3°C 43.8°F6.6°C 95% 6.0 mph S9.7 kmh S 10.4 mph16.7 kmh 29.24 in990.2 mb 0.00 in0.0 mm 0.00 in/hr0.0 mm/hr 0.67 in17.0 mm
11:21 PM 45.0°F7.2°C 43.6°F6.4°C 95% 3.9 mph S6.3 kmh S 10.4 mph16.7 kmh 29.24 in990.2 mb 0.01 in0.3 mm 0.06 in/hr1.5 mm/hr 0.01 in0.3 mm
11:31 PM 45.0°F7.2°C 43.9°F6.6°C 96% 4.6 mph SSW7.4 kmh SSW 5.7 mph9.2 kmh 29.25 in990.5 mb 0.01 in0.3 mm 0.00 in/hr0.0 mm/hr 0.01 in0.3 mm
11:41 PM 45.1°F7.3°C 44.1°F6.7°C 96% 2.7 mph SW4.3 kmh SW 4.7 mph7.6 kmh 29.25 in990.5 mb 0.01 in0.3 mm 0.00 in/hr0.0 mm/hr 0.01 in0.3 mm
11:51 PM 45.1°F7.3°C 44.1°F6.7°C 96% 4.3 mph NNW6.9 kmh NNW 9.1 mph14.6 kmh 29.25 in990.5 mb 0.01 in0.3 mm 0.00 in/hr0.0 mm/hr 0.01 in0.3 mm